createdAt,value
2023-05-07T00:00:09.623Z,13.90
2023-05-07T00:02:36.708Z,13.70
2023-05-07T00:05:07.566Z,13.60
2023-05-07T00:07:34.443Z,13.60
2023-05-07T00:10:01.144Z,13.70
2023-05-07T00:12:27.948Z,13.80
2023-05-07T00:14:54.572Z,13.80
2023-05-07T00:17:21.218Z,13.90
2023-05-07T00:19:47.939Z,13.80
2023-05-07T00:22:18.567Z,13.70
2023-05-07T00:24:45.931Z,13.70
2023-05-07T00:27:12.735Z,13.70
2023-05-07T00:29:39.623Z,13.80
2023-05-07T00:32:06.488Z,13.60
2023-05-07T00:34:33.206Z,13.50
2023-05-07T00:36:59.950Z,13.50
2023-05-07T00:39:27.136Z,13.60
2023-05-07T00:41:53.980Z,13.50
2023-05-07T00:44:20.750Z,13.30
2023-05-07T00:46:50.781Z,13.10
2023-05-07T00:49:17.845Z,13.00
2023-05-07T00:51:45.643Z,13.10
2023-05-07T00:54:13.514Z,13.10
2023-05-07T00:56:40.779Z,13.10
2023-05-07T00:59:07.809Z,13.10
2023-05-07T01:01:34.553Z,13.20
2023-05-07T01:04:02.430Z,13.10
2023-05-07T01:06:31.790Z,13.10
2023-05-07T01:08:59.639Z,13.10
2023-05-07T01:11:26.716Z,13.00
2023-05-07T01:13:53.992Z,13.10
2023-05-07T01:16:21.448Z,13.10
2023-05-07T01:18:49.917Z,13.00
2023-05-07T01:21:18.521Z,13.10
2023-05-07T01:23:46.973Z,13.00
2023-05-07T01:26:16.227Z,13.00
2023-05-07T01:28:46.376Z,13.10
2023-05-07T01:31:18.770Z,13.20
2023-05-07T01:33:46.844Z,13.20
2023-05-07T01:36:15.173Z,13.00
2023-05-07T01:38:43.331Z,12.90
2023-05-07T01:41:10.172Z,12.80
2023-05-07T01:43:42.162Z,12.80
2023-05-07T01:46:11.032Z,12.70
2023-05-07T01:48:38.611Z,12.80
2023-05-07T01:51:06.932Z,12.80
2023-05-07T01:53:37.801Z,12.70
2023-05-07T01:56:05.132Z,12.70
2023-05-07T01:58:33.198Z,12.60
2023-05-07T02:01:00.776Z,12.60
2023-05-07T02:03:27.809Z,12.60
2023-05-07T02:06:03.657Z,12.60
2023-05-07T02:08:34.348Z,12.40
2023-05-07T02:11:01.377Z,12.30
2023-05-07T02:13:31.171Z,12.30
2023-05-07T02:15:58.965Z,12.40
2023-05-07T02:18:27.836Z,12.40
2023-05-07T02:20:54.804Z,12.60
2023-05-07T02:23:21.496Z,12.60
2023-05-07T02:25:48.199Z,12.50
2023-05-07T02:28:14.933Z,12.30
2023-05-07T02:30:52.213Z,12.20
2023-05-07T02:33:19.764Z,12.20
2023-05-07T02:35:47.040Z,12.20
2023-05-07T02:38:15.670Z,12.20
2023-05-07T02:40:42.531Z,12.10
2023-05-07T02:43:09.591Z,12.10
2023-05-07T02:45:38.435Z,12.00
2023-05-07T02:48:07.274Z,12.00
2023-05-07T02:50:34.100Z,12.20
2023-05-07T02:53:00.855Z,12.00
2023-05-07T02:55:27.835Z,12.10
2023-05-07T02:57:54.482Z,12.10
2023-05-07T03:00:22.163Z,12.00
2023-05-07T03:03:15.493Z,12.20
2023-05-07T03:05:42.399Z,12.20
2023-05-07T03:08:10.103Z,12.00
2023-05-07T03:10:40.716Z,12.10
2023-05-07T03:13:07.732Z,12.10
2023-05-07T03:15:34.551Z,12.00
2023-05-07T03:18:01.480Z,12.00
2023-05-07T03:20:28.258Z,12.00
2023-05-07T03:22:55.763Z,12.00
2023-05-07T03:25:22.443Z,12.10
2023-05-07T03:27:49.086Z,12.10
2023-05-07T03:30:19.962Z,11.80
2023-05-07T03:32:47.040Z,11.80
2023-05-07T03:35:13.966Z,11.80
2023-05-07T03:37:41.488Z,11.90
2023-05-07T03:40:11.506Z,11.90
2023-05-07T03:42:44.140Z,11.90
2023-05-07T03:45:11.851Z,11.80
2023-05-07T03:47:42.644Z,11.80
2023-05-07T03:50:11.704Z,11.90
2023-05-07T03:52:39.069Z,11.90
2023-05-07T03:55:08.830Z,11.90
2023-05-07T03:57:37.667Z,11.80
2023-05-07T04:00:06.529Z,11.90
2023-05-07T04:02:47.519Z,12.00
2023-05-07T04:05:17.715Z,12.00
2023-05-07T04:07:46.359Z,12.00
2023-05-07T04:10:16.059Z,12.00
2023-05-07T04:12:45.182Z,12.00
2023-05-07T04:15:16.502Z,12.00
2023-05-07T04:17:43.420Z,12.00
2023-05-07T04:20:15.512Z,12.10
2023-05-07T04:22:42.998Z,12.00
2023-05-07T04:25:10.731Z,12.00
2023-05-07T04:27:38.662Z,12.00
2023-05-07T04:30:06.151Z,12.00
2023-05-07T04:32:38.357Z,12.00
2023-05-07T04:35:05.837Z,12.00
2023-05-07T04:37:36.106Z,11.90
2023-05-07T04:40:04.134Z,11.90
2023-05-07T04:42:32.124Z,12.00
2023-05-07T04:44:59.937Z,12.00
2023-05-07T04:47:27.217Z,12.00
2023-05-07T04:49:53.942Z,12.10
2023-05-07T04:52:21.159Z,11.90
2023-05-07T04:54:48.765Z,11.80
2023-05-07T04:57:15.706Z,11.90
2023-05-07T04:59:42.876Z,12.20
2023-05-07T05:02:10.823Z,12.20
2023-05-07T05:04:38.309Z,12.20
2023-05-07T05:07:05.764Z,12.20
2023-05-07T05:09:32.504Z,12.20
2023-05-07T05:12:00.450Z,12.20
2023-05-07T05:14:27.201Z,12.30
2023-05-07T05:16:53.990Z,12.40
2023-05-07T05:19:20.928Z,12.60
2023-05-07T05:21:47.791Z,12.70
2023-05-07T05:24:14.550Z,12.70
2023-05-07T05:26:41.256Z,12.70
2023-05-07T05:29:08.967Z,12.80
2023-05-07T05:31:37.898Z,12.70
2023-05-07T05:34:05.638Z,12.70
2023-05-07T05:36:32.402Z,12.70
2023-05-07T05:38:59.261Z,12.70
2023-05-07T05:41:26.072Z,12.90
2023-05-07T05:43:53.177Z,12.90
2023-05-07T05:46:20.324Z,13.20
2023-05-07T05:48:48.193Z,13.40
2023-05-07T05:51:14.860Z,13.60
2023-05-07T05:53:41.501Z,13.50
2023-05-07T05:56:08.734Z,13.40
2023-05-07T05:58:35.813Z,13.70
2023-05-07T06:01:06.349Z,14.00
2023-05-07T06:03:34.872Z,14.10
2023-05-07T06:06:06.190Z,14.20
2023-05-07T06:08:33.011Z,14.30
2023-05-07T06:11:01.960Z,14.40
2023-05-07T06:13:31.168Z,14.40
2023-05-07T06:15:57.812Z,14.40
2023-05-07T06:18:24.530Z,14.60
2023-05-07T06:20:51.284Z,14.60
2023-05-07T06:23:24.571Z,14.80
2023-05-07T06:25:52.001Z,14.90
2023-05-07T06:28:21.941Z,15.10
2023-05-07T06:30:50.768Z,15.10
2023-05-07T06:33:18.260Z,15.30
2023-05-07T06:35:44.898Z,15.20
2023-05-07T06:38:13.237Z,15.20
2023-05-07T06:40:39.962Z,15.30
2023-05-07T06:43:06.690Z,15.30
2023-05-07T06:45:48.523Z,15.40
2023-05-07T06:48:15.860Z,15.40
2023-05-07T06:50:52.862Z,15.50
2023-05-07T06:53:20.040Z,15.40
2023-05-07T06:55:47.354Z,15.40
2023-05-07T06:58:15.318Z,15.50
2023-05-07T07:00:42.176Z,15.50
2023-05-07T07:03:09.666Z,15.70
2023-05-07T07:05:36.959Z,15.80
2023-05-07T07:08:07.885Z,15.80
2023-05-07T07:10:35.638Z,15.90
2023-05-07T07:13:03.807Z,16.00
2023-05-07T07:15:31.057Z,16.20
2023-05-07T07:17:58.720Z,16.20
2023-05-07T07:20:25.861Z,16.30
2023-05-07T07:22:52.759Z,16.40
2023-05-07T07:26:09.570Z,16.50
2023-05-07T07:28:44.591Z,16.60
2023-05-07T07:31:13.280Z,16.50
2023-05-07T07:33:40.238Z,16.50
2023-05-07T07:36:08.451Z,16.50
2023-05-07T07:38:36.792Z,16.60
2023-05-07T07:41:04.718Z,16.50
2023-05-07T07:43:31.568Z,16.50
2023-05-07T07:45:58.657Z,16.60
2023-05-07T07:48:26.747Z,16.70
2023-05-07T07:51:00.928Z,16.90
2023-05-07T07:53:32.204Z,17.10
2023-05-07T07:56:05.651Z,17.40
2023-05-07T07:58:36.339Z,17.60
2023-05-07T08:01:03.641Z,17.80
2023-05-07T08:03:40.392Z,17.70
2023-05-07T08:06:12.135Z,17.90
2023-05-07T08:08:41.764Z,18.00
2023-05-07T08:11:10.266Z,17.90
2023-05-07T08:13:38.680Z,17.90
2023-05-07T08:16:05.905Z,17.90
2023-05-07T08:18:33.347Z,18.00
2023-05-07T08:21:02.840Z,18.10
2023-05-07T08:23:31.365Z,18.00
2023-05-07T08:25:58.335Z,17.90
2023-05-07T08:28:25.980Z,18.00
2023-05-07T08:30:52.926Z,18.10
2023-05-07T08:33:20.348Z,18.10
2023-05-07T08:35:47.102Z,18.00
2023-05-07T08:38:15.079Z,17.90
2023-05-07T08:40:42.818Z,18.10
2023-05-07T08:43:16.030Z,18.00
2023-05-07T08:45:54.133Z,18.20
2023-05-07T08:48:26.071Z,18.30
2023-05-07T08:51:00.424Z,18.40
2023-05-07T08:53:27.128Z,18.40
2023-05-07T08:55:55.152Z,18.40
2023-05-07T08:58:22.138Z,18.60
2023-05-07T09:00:49.951Z,18.70
2023-05-07T09:03:17.308Z,18.30
2023-05-07T09:05:47.812Z,18.30
2023-05-07T09:08:17.482Z,18.40
2023-05-07T09:10:46.438Z,18.60
2023-05-07T09:13:15.462Z,18.90
2023-05-07T09:15:42.496Z,19.00
2023-05-07T09:18:10.586Z,19.20
2023-05-07T09:20:39.896Z,19.20
2023-05-07T09:23:08.291Z,19.20
2023-05-07T09:25:37.672Z,19.00
2023-05-07T09:28:11.870Z,19.10
2023-05-07T09:30:38.672Z,19.10
2023-05-07T09:33:08.280Z,19.20
2023-05-07T09:35:38.935Z,19.30
2023-05-07T09:38:10.418Z,19.60
2023-05-07T09:40:37.911Z,19.80
2023-05-07T09:43:14.188Z,19.90
2023-05-07T09:45:55.722Z,20.00
2023-05-07T09:48:27.668Z,20.00
2023-05-07T09:50:59.499Z,20.10
2023-05-07T09:53:31.051Z,20.20
2023-05-07T09:55:59.314Z,20.50
2023-05-07T09:58:27.190Z,20.70
2023-05-07T10:00:56.428Z,21.00
2023-05-07T10:03:27.848Z,21.20
2023-05-07T10:06:01.392Z,21.50
2023-05-07T10:08:29.532Z,21.70
2023-05-07T10:10:59.470Z,21.70
2023-05-07T10:13:28.314Z,21.80
2023-05-07T10:15:58.447Z,21.80
2023-05-07T10:18:33.477Z,22.00
2023-05-07T10:21:14.170Z,22.30
2023-05-07T10:23:42.405Z,22.30
2023-05-07T10:26:10.428Z,22.10
2023-05-07T10:28:45.771Z,22.00
2023-05-07T10:31:38.804Z,22.10
2023-05-07T10:34:12.066Z,22.40
2023-05-07T10:36:40.121Z,22.50
2023-05-07T10:39:07.775Z,22.50
2023-05-07T10:41:35.928Z,22.90
2023-05-07T10:44:03.116Z,23.10
2023-05-07T10:46:39.095Z,23.40
2023-05-07T10:49:20.204Z,23.60
2023-05-07T10:52:24.366Z,23.60
2023-05-07T10:55:26.787Z,23.50
2023-05-07T10:58:31.848Z,23.50
2023-05-07T11:02:04.964Z,23.60
2023-05-07T11:05:27.386Z,23.80
2023-05-07T11:08:07.130Z,24.00
2023-05-07T11:10:56.470Z,24.10
2023-05-07T11:13:51.230Z,24.40
2023-05-07T11:16:32.384Z,24.30
2023-05-07T11:19:10.861Z,24.30
2023-05-07T11:21:43.600Z,24.60
2023-05-07T11:24:22.976Z,24.90
2023-05-07T11:26:57.572Z,25.00
2023-05-07T11:29:26.724Z,25.00
2023-05-07T11:31:59.478Z,24.90
2023-05-07T11:34:33.514Z,24.70
2023-05-07T11:37:04.032Z,24.80
2023-05-07T11:39:50.644Z,25.00
2023-05-07T11:42:34.406Z,25.10
2023-05-07T11:45:01.737Z,25.30
2023-05-07T11:47:31.644Z,25.50
2023-05-07T11:50:02.856Z,25.50
2023-05-07T11:52:29.650Z,25.70
2023-05-07T11:54:58.593Z,25.80
2023-05-07T11:57:25.732Z,25.90
2023-05-07T11:59:59.635Z,26.10
2023-05-07T12:02:27.269Z,26.30
2023-05-07T12:04:54.922Z,26.50
2023-05-07T12:07:22.080Z,26.40
2023-05-07T12:09:49.149Z,26.10
2023-05-07T12:12:18.127Z,25.80
2023-05-07T12:14:46.676Z,25.60
2023-05-07T12:17:15.402Z,25.60
2023-05-07T12:19:44.436Z,25.20
2023-05-07T12:22:11.816Z,25.00
2023-05-07T12:24:45.947Z,25.30
2023-05-07T12:27:14.266Z,25.40
2023-05-07T12:29:48.580Z,25.60
2023-05-07T12:32:17.948Z,25.50
2023-05-07T12:34:46.654Z,25.40
2023-05-07T12:37:15.131Z,25.20
2023-05-07T12:40:08.955Z,24.90
2023-05-07T12:42:40.753Z,24.80
2023-05-07T12:45:19.403Z,24.70
2023-05-07T12:47:52.395Z,24.90
2023-05-07T12:50:23.261Z,24.80
2023-05-07T12:52:53.936Z,24.40
2023-05-07T12:55:21.176Z,24.60
2023-05-07T12:57:51.528Z,24.90
2023-05-07T13:00:22.097Z,25.00
2023-05-07T13:02:49.054Z,25.20
2023-05-07T13:05:15.869Z,25.60
2023-05-07T13:08:00.375Z,25.90
2023-05-07T13:10:35.271Z,26.00
2023-05-07T13:13:02.656Z,26.10
2023-05-07T13:15:29.928Z,26.20
2023-05-07T13:17:56.892Z,26.30
2023-05-07T13:20:24.495Z,26.30
2023-05-07T13:22:51.767Z,26.30
2023-05-07T13:25:19.229Z,26.10
2023-05-07T13:28:02.765Z,26.10
2023-05-07T13:30:41.418Z,25.70
2023-05-07T13:33:08.700Z,25.80
2023-05-07T13:35:35.941Z,26.00
2023-05-07T13:38:02.703Z,26.00
2023-05-07T13:40:29.403Z,26.00
2023-05-07T13:42:59.321Z,25.70
2023-05-07T13:45:27.157Z,25.50
2023-05-07T13:47:54.033Z,25.40
2023-05-07T13:50:20.747Z,25.30
2023-05-07T13:52:51.541Z,25.00
2023-05-07T13:55:37.972Z,24.70
2023-05-07T13:58:06.985Z,24.40
2023-05-07T14:00:34.595Z,24.30
2023-05-07T14:03:01.285Z,24.20
2023-05-07T14:05:30.941Z,24.20
2023-05-07T14:08:00.803Z,24.00
2023-05-07T14:10:27.605Z,24.00
2023-05-07T14:12:54.367Z,24.00
2023-05-07T14:15:21.145Z,23.90
2023-05-07T14:17:47.934Z,23.90
2023-05-07T14:20:17.770Z,23.90
2023-05-07T14:22:45.163Z,23.80
2023-05-07T14:25:11.955Z,23.80
2023-05-07T14:27:38.664Z,23.70
2023-05-07T14:30:06.373Z,23.60
2023-05-07T14:32:34.050Z,23.50
2023-05-07T14:35:00.984Z,23.50
2023-05-07T14:37:27.966Z,23.40
2023-05-07T14:39:54.797Z,23.10
2023-05-07T14:42:21.527Z,23.00
2023-05-07T14:44:49.296Z,23.00
2023-05-07T14:47:18.359Z,23.00
2023-05-07T14:49:46.530Z,23.00
2023-05-07T14:52:13.281Z,23.00
2023-05-07T14:54:39.908Z,22.60
2023-05-07T14:57:07.744Z,21.40
2023-05-07T14:59:34.668Z,20.20
2023-05-07T15:02:03.817Z,19.20
2023-05-07T15:04:32.323Z,18.40
2023-05-07T15:06:59.090Z,18.10
2023-05-07T15:09:25.884Z,17.70
2023-05-07T15:11:52.708Z,17.40
2023-05-07T15:14:19.933Z,17.10
2023-05-07T15:16:46.852Z,16.90
2023-05-07T15:19:15.668Z,17.20
2023-05-07T15:21:42.888Z,16.90
2023-05-07T15:24:10.385Z,16.50
2023-05-07T15:26:37.269Z,16.60
2023-05-07T15:29:09.160Z,16.80
2023-05-07T15:31:38.517Z,16.50
2023-05-07T15:34:05.353Z,16.30
2023-05-07T15:36:32.040Z,16.30
2023-05-07T15:38:58.853Z,16.10
2023-05-07T15:41:25.984Z,16.20
2023-05-07T15:43:53.772Z,16.10
2023-05-07T15:46:24.707Z,16.20
2023-05-07T15:48:52.481Z,16.50
2023-05-07T15:51:19.448Z,16.60
2023-05-07T15:53:46.456Z,16.50
2023-05-07T15:56:13.829Z,16.60
2023-05-07T15:58:41.211Z,16.70
2023-05-07T16:01:08.055Z,16.60
2023-05-07T16:03:35.170Z,16.50
2023-05-07T16:06:02.332Z,16.40
2023-05-07T16:08:29.261Z,16.50
2023-05-07T16:10:55.900Z,16.70
2023-05-07T16:13:24.761Z,16.90
2023-05-07T16:15:57.549Z,17.00
2023-05-07T16:18:24.309Z,17.00
2023-05-07T16:20:51.146Z,17.10
2023-05-07T16:23:18.362Z,17.00
2023-05-07T16:25:45.010Z,16.90
2023-05-07T16:28:11.930Z,16.70
2023-05-07T16:30:38.720Z,16.40
2023-05-07T16:33:05.746Z,16.10
2023-05-07T16:35:32.490Z,15.80
2023-05-07T16:37:59.196Z,15.50
2023-05-07T16:40:25.932Z,15.40
2023-05-07T16:42:55.332Z,15.40
2023-05-07T16:45:25.875Z,15.40
2023-05-07T16:47:53.763Z,15.60
2023-05-07T16:50:20.637Z,15.80
2023-05-07T16:52:47.372Z,15.90
2023-05-07T16:55:14.637Z,16.00
2023-05-07T16:57:41.470Z,16.20
2023-05-07T17:00:09.396Z,16.10
2023-05-07T17:02:36.247Z,16.10
2023-05-07T17:05:03.666Z,16.10
2023-05-07T17:07:30.365Z,16.20
2023-05-07T17:09:57.167Z,16.40
2023-05-07T17:12:23.860Z,16.50
2023-05-07T17:14:50.698Z,16.20
2023-05-07T17:17:17.408Z,16.10
2023-05-07T17:19:44.323Z,16.10
2023-05-07T17:22:11.203Z,16.10
2023-05-07T17:24:38.024Z,16.10
2023-05-07T17:27:05.201Z,16.00
2023-05-07T17:29:35.110Z,16.10
2023-05-07T17:32:07.021Z,16.10
2023-05-07T17:34:37.808Z,16.10
2023-05-07T17:37:05.269Z,16.10
2023-05-07T17:39:32.271Z,16.00
2023-05-07T17:42:05.808Z,16.10
2023-05-07T17:44:33.986Z,16.20
2023-05-07T17:47:01.425Z,16.20
2023-05-07T17:49:29.875Z,16.20
2023-05-07T17:52:06.582Z,16.30
2023-05-07T17:54:33.934Z,16.10
2023-05-07T17:57:04.321Z,16.20
2023-05-07T17:59:34.398Z,16.30
2023-05-07T18:02:01.058Z,16.30
2023-05-07T18:04:28.170Z,16.10
2023-05-07T18:06:54.894Z,15.90
2023-05-07T18:09:21.579Z,15.90
2023-05-07T18:11:48.315Z,16.00
2023-05-07T18:14:15.193Z,16.10
2023-05-07T18:16:41.949Z,16.10
2023-05-07T18:19:09.110Z,16.00
2023-05-07T18:21:35.800Z,16.10
2023-05-07T18:24:02.471Z,16.10
2023-05-07T18:26:29.100Z,16.10
2023-05-07T18:28:55.803Z,15.90
2023-05-07T18:31:22.941Z,15.90
2023-05-07T18:33:52.570Z,16.00
2023-05-07T18:36:19.320Z,16.00
2023-05-07T18:38:45.992Z,16.00
2023-05-07T18:41:13.180Z,16.00
2023-05-07T18:43:39.837Z,16.00
2023-05-07T18:46:06.629Z,16.00
2023-05-07T18:48:33.443Z,16.00
2023-05-07T18:51:00.165Z,15.80
2023-05-07T18:53:26.867Z,15.80
2023-05-07T18:55:53.680Z,16.00
2023-05-07T18:58:20.849Z,16.10
2023-05-07T19:00:48.830Z,16.20
2023-05-07T19:03:16.159Z,16.20
2023-05-07T19:05:43.977Z,16.00
2023-05-07T19:08:11.089Z,15.90
2023-05-07T19:10:43.600Z,15.80
2023-05-07T19:13:10.857Z,15.90
2023-05-07T19:15:37.715Z,15.80
2023-05-07T19:18:04.621Z,15.70
2023-05-07T19:20:31.446Z,15.70
2023-05-07T19:22:58.102Z,15.70
2023-05-07T19:25:24.862Z,15.80
2023-05-07T19:27:51.532Z,15.80
2023-05-07T19:30:18.788Z,15.80
2023-05-07T19:32:45.657Z,15.80
2023-05-07T19:35:12.889Z,15.90
2023-05-07T19:37:39.805Z,15.80
2023-05-07T19:40:08.648Z,15.60
2023-05-07T19:42:35.403Z,15.50
2023-05-07T19:45:04.149Z,15.60
2023-05-07T19:47:31.030Z,15.70
2023-05-07T19:49:57.817Z,15.60
2023-05-07T19:52:24.436Z,15.60
2023-05-07T19:54:51.828Z,15.80
2023-05-07T19:57:18.751Z,15.70
2023-05-07T19:59:47.033Z,15.70
2023-05-07T20:02:14.173Z,15.60
2023-05-07T20:04:41.018Z,15.70
2023-05-07T20:07:07.826Z,15.70
2023-05-07T20:09:34.822Z,15.90
2023-05-07T20:12:01.553Z,15.70
2023-05-07T20:14:28.357Z,15.50
2023-05-07T20:16:55.272Z,15.40
2023-05-07T20:19:22.007Z,15.50
2023-05-07T20:21:48.730Z,15.50
2023-05-07T20:24:16.651Z,15.50
2023-05-07T20:26:43.370Z,15.50
2023-05-07T20:29:10.146Z,15.50
2023-05-07T20:31:37.324Z,15.40
2023-05-07T20:34:04.078Z,15.30
2023-05-07T20:36:30.718Z,15.40
2023-05-07T20:38:57.333Z,15.40
2023-05-07T20:41:25.395Z,15.70
2023-05-07T20:43:52.239Z,15.60
2023-05-07T20:46:22.497Z,15.60
2023-05-07T20:48:49.689Z,15.50
2023-05-07T20:51:16.483Z,15.40
2023-05-07T20:53:47.816Z,15.20
2023-05-07T20:56:15.080Z,15.10
2023-05-07T20:58:41.712Z,14.90
2023-05-07T21:01:08.767Z,14.90
2023-05-07T21:03:35.487Z,15.00
2023-05-07T21:06:02.967Z,15.00
2023-05-07T21:08:29.959Z,15.10
2023-05-07T21:10:56.702Z,15.00
2023-05-07T21:13:23.779Z,15.00
2023-05-07T21:15:50.770Z,15.20
2023-05-07T21:18:19.507Z,15.20
2023-05-07T21:20:46.203Z,15.30
2023-05-07T21:23:12.895Z,15.10
2023-05-07T21:25:40.867Z,15.20
2023-05-07T21:28:10.694Z,15.00
2023-05-07T21:30:37.459Z,15.10
2023-05-07T21:33:07.029Z,15.10
2023-05-07T21:35:38.624Z,15.30
2023-05-07T21:38:05.305Z,15.40
2023-05-07T21:40:31.992Z,15.30
2023-05-07T21:43:01.990Z,15.20
2023-05-07T21:45:28.713Z,15.30
2023-05-07T21:47:55.584Z,15.30
2023-05-07T21:50:22.598Z,15.30
2023-05-07T21:52:49.804Z,15.30
2023-05-07T21:55:18.302Z,15.30
2023-05-07T21:57:50.888Z,15.40
2023-05-07T22:00:29.340Z,15.30
2023-05-07T22:02:56.080Z,15.40
2023-05-07T22:05:22.835Z,15.50
2023-05-07T22:07:49.473Z,15.40
2023-05-07T22:10:21.675Z,15.30
2023-05-07T22:12:48.384Z,15.40
2023-05-07T22:15:15.240Z,15.30
2023-05-07T22:17:41.933Z,15.40
2023-05-07T22:20:09.382Z,15.30
2023-05-07T22:22:52.255Z,15.30
2023-05-07T22:25:20.725Z,15.30
2023-05-07T22:27:48.004Z,15.30
2023-05-07T22:30:14.853Z,15.30
2023-05-07T22:32:45.075Z,15.30
2023-05-07T22:35:12.100Z,15.20
2023-05-07T22:37:38.719Z,15.20
2023-05-07T22:40:06.248Z,15.20
2023-05-07T22:42:32.891Z,15.30
2023-05-07T22:44:59.693Z,15.30
2023-05-07T22:47:29.590Z,15.20
2023-05-07T22:49:56.559Z,15.00
2023-05-07T22:52:23.391Z,15.10
2023-05-07T22:54:50.050Z,15.00
2023-05-07T22:57:16.713Z,15.00
2023-05-07T22:59:43.421Z,14.90
2023-05-07T23:02:10.125Z,14.90
2023-05-07T23:04:36.992Z,15.10
2023-05-07T23:07:03.626Z,15.00
2023-05-07T23:09:30.695Z,15.00
2023-05-07T23:11:57.317Z,14.90
2023-05-07T23:14:24.603Z,14.80
2023-05-07T23:16:51.453Z,14.70
2023-05-07T23:19:18.208Z,14.70
2023-05-07T23:21:44.894Z,14.80
2023-05-07T23:24:11.605Z,14.90
2023-05-07T23:26:38.284Z,14.80
2023-05-07T23:29:04.914Z,14.80
2023-05-07T23:31:31.821Z,14.70
2023-05-07T23:33:58.489Z,14.70
2023-05-07T23:36:25.247Z,14.80
2023-05-07T23:38:51.910Z,14.80
2023-05-07T23:41:18.535Z,14.80
2023-05-07T23:43:45.314Z,14.90
2023-05-07T23:46:11.954Z,15.00
2023-05-07T23:48:38.581Z,15.00
2023-05-07T23:51:05.308Z,15.20
2023-05-07T23:53:32.006Z,15.30
2023-05-07T23:55:58.641Z,15.20
2023-05-07T23:58:25.266Z,15.20
